aviador You're here:

LFSN Decoded Metar

NANCY ESSEY in FRANCE
Report Time2017-08-22 16:30:00
UTC Time2017-08-22 16:44:55
Flight Rules vfr VFR
Wind050° at 06 kt
W.Decomp.*RWY 03: 5.6 kt HW 2.1 kt RCW
W.Rank050° ranks 4
Current wind is below 050° avg. (6.0)
Visibility9999 m
Phenomena:N/A
Clouds:N/A
Expected CloudBase > 4,400 ft AGL from Temp-Dew spread
CeilingNone
Temp24°C (ISA +10)
Dew Point13°C (50% RH)
AAT22.7°C
QNH1018 hPa
Density Alt1,955 ft
Elevation712 ft
Report Wrong Elevation
Raw Report
METAR LFSN 221630Z AUTO 05006KT 010V120 CAVOK 24/13 Q1018=

Extra information for LFSN:More info

Metar Taf Metar & Taf Last 4 Metars F.Rules Stats Wind Profile Meteogram Temp Stats Airport Information Weather charts Add Link Nearby VenuesMetar ALERT Operation Metar Decoded Social comments